sensor_id;sensor_type;location;lat;lon;timestamp;temperature;humidity
4725;DHT22;2376;53.544;10.226;2022-08-03T00:01:42;22.50;99.90
4725;DHT22;2376;53.544;10.226;2022-08-03T00:04:11;22.50;99.90
4725;DHT22;2376;53.544;10.226;2022-08-03T00:06:37;22.60;99.90
4725;DHT22;2376;53.544;10.226;2022-08-03T00:09:04;22.60;99.90
4725;DHT22;2376;53.544;10.226;2022-08-03T00:11:31;22.50;99.90
4725;DHT22;2376;53.544;10.226;2022-08-03T00:13:58;22.50;99.90
4725;DHT22;2376;53.544;10.226;2022-08-03T00:16:25;22.50;99.90
4725;DHT22;2376;53.544;10.226;2022-08-03T00:18:51;22.50;99.90
4725;DHT22;2376;53.544;10.226;2022-08-03T00:21:19;22.50;99.90
4725;DHT22;2376;53.544;10.226;2022-08-03T00:23:46;22.50;99.90
4725;DHT22;2376;53.544;10.226;2022-08-03T00:26:13;22.50;99.90
4725;DHT22;2376;53.544;10.226;2022-08-03T00:28:39;22.50;99.90
4725;DHT22;2376;53.544;10.226;2022-08-03T00:31:06;22.50;99.90
4725;DHT22;2376;53.544;10.226;2022-08-03T00:33:33;22.40;99.90
4725;DHT22;2376;53.544;10.226;2022-08-03T00:35:59;22.40;99.90
4725;DHT22;2376;53.544;10.226;2022-08-03T00:38:27;22.40;99.90
4725;DHT22;2376;53.544;10.226;2022-08-03T00:40:54;22.40;99.90
4725;DHT22;2376;53.544;10.226;2022-08-03T00:43:24;22.40;99.90
4725;DHT22;2376;53.544;10.226;2022-08-03T00:45:51;22.40;99.90
4725;DHT22;2376;53.544;10.226;2022-08-03T00:48:19;22.30;99.90
4725;DHT22;2376;53.544;10.226;2022-08-03T00:50:46;22.30;99.90
4725;DHT22;2376;53.544;10.226;2022-08-03T00:53:13;22.30;99.90
4725;DHT22;2376;53.544;10.226;2022-08-03T00:55:42;22.30;99.90
4725;DHT22;2376;53.544;10.226;2022-08-03T00:58:10;22.30;99.90
4725;DHT22;2376;53.544;10.226;2022-08-03T01:00:38;22.30;99.90
4725;DHT22;2376;53.544;10.226;2022-08-03T01:03:06;22.20;99.90
4725;DHT22;2376;53.544;10.226;2022-08-03T01:05:39;22.20;99.90
4725;DHT22;2376;53.544;10.226;2022-08-03T01:08:14;22.20;99.90
4725;DHT22;2376;53.544;10.226;2022-08-03T01:10:52;22.20;99.90
4725;DHT22;2376;53.544;10.226;2022-08-03T01:13:24;22.10;99.90
4725;DHT22;2376;53.544;10.226;2022-08-03T01:15:58;22.10;99.90
4725;DHT22;2376;53.544;10.226;2022-08-03T01:18:31;22.10;99.90
4725;DHT22;2376;53.544;10.226;2022-08-03T01:21:06;22.00;99.90
4725;DHT22;2376;53.544;10.226;2022-08-03T01:23:48;22.00;99.90
4725;DHT22;2376;53.544;10.226;2022-08-03T01:26:37;22.00;99.90
4725;DHT22;2376;53.544;10.226;2022-08-03T01:29:36;21.90;99.90
4725;DHT22;2376;53.544;10.226;2022-08-03T01:32:10;21.90;99.90
4725;DHT22;2376;53.544;10.226;2022-08-03T01:34:42;21.80;99.90
4725;DHT22;2376;53.544;10.226;2022-08-03T01:37:10;21.80;99.90
4725;DHT22;2376;53.544;10.226;2022-08-03T01:39:38;21.70;99.90
4725;DHT22;2376;53.544;10.226;2022-08-03T01:42:07;21.70;99.90
4725;DHT22;2376;53.544;10.226;2022-08-03T01:44:40;21.60;99.90
4725;DHT22;2376;53.544;10.226;2022-08-03T01:47:09;21.60;99.90
4725;DHT22;2376;53.544;10.226;2022-08-03T01:49:38;21.60;99.90
4725;DHT22;2376;53.544;10.226;2022-08-03T01:52:06;21.50;99.90
4725;DHT22;2376;53.544;10.226;2022-08-03T01:54:36;21.50;99.90
4725;DHT22;2376;53.544;10.226;2022-08-03T01:57:03;21.40;99.90
4725;DHT22;2376;53.544;10.226;2022-08-03T01:59:34;21.40;99.90
4725;DHT22;2376;53.544;10.226;2022-08-03T02:02:04;21.40;99.90
4725;DHT22;2376;53.544;10.226;2022-08-03T02:04:31;21.40;99.90
4725;DHT22;2376;53.544;10.226;2022-08-03T02:07:00;21.30;99.90
4725;DHT22;2376;53.544;10.226;2022-08-03T02:09:28;21.30;99.90
4725;DHT22;2376;53.544;10.226;2022-08-03T02:11:56;21.30;99.90
4725;DHT22;2376;53.544;10.226;2022-08-03T02:14:25;21.20;99.90
4725;DHT22;2376;53.544;10.226;2022-08-03T02:16:53;21.20;99.90
4725;DHT22;2376;53.544;10.226;2022-08-03T02:19:24;21.20;99.90
4725;DHT22;2376;53.544;10.226;2022-08-03T02:21:52;21.20;99.90
4725;DHT22;2376;53.544;10.226;2022-08-03T02:24:19;21.10;99.90
4725;DHT22;2376;53.544;10.226;2022-08-03T02:26:46;21.10;99.90
4725;DHT22;2376;53.544;10.226;2022-08-03T02:29:19;21.10;99.90
4725;DHT22;2376;53.544;10.226;2022-08-03T02:31:48;21.10;99.90
4725;DHT22;2376;53.544;10.226;2022-08-03T02:34:16;21.00;99.90
4725;DHT22;2376;53.544;10.226;2022-08-03T02:36:48;21.00;99.90
4725;DHT22;2376;53.544;10.226;2022-08-03T02:39:19;21.00;99.90
4725;DHT22;2376;53.544;10.226;2022-08-03T02:41:50;21.00;99.90
4725;DHT22;2376;53.544;10.226;2022-08-03T02:44:20;21.00;99.90
4725;DHT22;2376;53.544;10.226;2022-08-03T02:46:53;20.90;99.90
4725;DHT22;2376;53.544;10.226;2022-08-03T02:49:21;20.90;99.90
4725;DHT22;2376;53.544;10.226;2022-08-03T02:51:51;20.90;99.90
4725;DHT22;2376;53.544;10.226;2022-08-03T02:54:19;20.90;99.90
4725;DHT22;2376;53.544;10.226;2022-08-03T02:56:47;20.80;99.90
4725;DHT22;2376;53.544;10.226;2022-08-03T02:59:16;20.80;99.90
4725;DHT22;2376;53.544;10.226;2022-08-03T03:01:44;20.80;99.90
4725;DHT22;2376;53.544;10.226;2022-08-03T03:04:11;20.80;99.90
4725;DHT22;2376;53.544;10.226;2022-08-03T03:06:38;20.80;99.90
4725;DHT22;2376;53.544;10.226;2022-08-03T03:09:07;20.80;99.90
4725;DHT22;2376;53.544;10.226;2022-08-03T03:11:35;20.70;99.90
4725;DHT22;2376;53.544;10.226;2022-08-03T03:14:03;20.70;99.90
4725;DHT22;2376;53.544;10.226;2022-08-03T03:16:30;20.70;99.90
4725;DHT22;2376;53.544;10.226;2022-08-03T03:18:59;20.70;99.90
4725;DHT22;2376;53.544;10.226;2022-08-03T03:21:28;20.70;99.90
4725;DHT22;2376;53.544;10.226;2022-08-03T03:23:56;20.70;99.90
4725;DHT22;2376;53.544;10.226;2022-08-03T03:26:25;20.70;99.90
4725;DHT22;2376;53.544;10.226;2022-08-03T03:28:52;20.70;99.90
4725;DHT22;2376;53.544;10.226;2022-08-03T03:31:20;20.60;99.90
4725;DHT22;2376;53.544;10.226;2022-08-03T03:33:47;20.60;99.90
4725;DHT22;2376;53.544;10.226;2022-08-03T03:36:14;20.60;99.90
4725;DHT22;2376;53.544;10.226;2022-08-03T03:38:41;20.60;99.90
4725;DHT22;2376;53.544;10.226;2022-08-03T03:41:08;20.60;99.90
4725;DHT22;2376;53.544;10.226;2022-08-03T03:43:37;20.50;99.90
4725;DHT22;2376;53.544;10.226;2022-08-03T03:46:03;20.50;99.90
4725;DHT22;2376;53.544;10.226;2022-08-03T03:48:32;20.50;99.90
4725;DHT22;2376;53.544;10.226;2022-08-03T03:50:59;20.50;99.90
4725;DHT22;2376;53.544;10.226;2022-08-03T03:53:26;20.50;99.90
4725;DHT22;2376;53.544;10.226;2022-08-03T03:55:53;20.50;99.90
4725;DHT22;2376;53.544;10.226;2022-08-03T03:58:20;20.50;99.90
4725;DHT22;2376;53.544;10.226;2022-08-03T04:00:48;20.50;99.90
4725;DHT22;2376;53.544;10.226;2022-08-03T04:03:15;20.50;99.90
4725;DHT22;2376;53.544;10.226;2022-08-03T04:05:42;20.50;99.90
4725;DHT22;2376;53.544;10.226;2022-08-03T04:08:27;20.50;99.90
4725;DHT22;2376;53.544;10.226;2022-08-03T04:11:15;20.40;99.90
4725;DHT22;2376;53.544;10.226;2022-08-03T04:13:49;20.40;99.90
4725;DHT22;2376;53.544;10.226;2022-08-03T04:16:18;20.40;99.90
4725;DHT22;2376;53.544;10.226;2022-08-03T04:18:51;20.40;99.90
4725;DHT22;2376;53.544;10.226;2022-08-03T04:21:20;20.40;99.90
4725;DHT22;2376;53.544;10.226;2022-08-03T04:23:52;20.50;99.90
4725;DHT22;2376;53.544;10.226;2022-08-03T04:26:21;20.40;99.90
4725;DHT22;2376;53.544;10.226;2022-08-03T04:28:50;20.50;99.90
4725;DHT22;2376;53.544;10.226;2022-08-03T04:31:20;20.40;99.90
4725;DHT22;2376;53.544;10.226;2022-08-03T04:33:49;20.50;99.90
4725;DHT22;2376;53.544;10.226;2022-08-03T04:36:20;20.50;99.90
4725;DHT22;2376;53.544;10.226;2022-08-03T04:38:54;20.50;99.90
4725;DHT22;2376;53.544;10.226;2022-08-03T04:41:24;20.50;99.90
4725;DHT22;2376;53.544;10.226;2022-08-03T04:43:53;20.50;99.90
4725;DHT22;2376;53.544;10.226;2022-08-03T04:46:25;20.50;99.90
4725;DHT22;2376;53.544;10.226;2022-08-03T04:48:54;20.60;99.90
4725;DHT22;2376;53.544;10.226;2022-08-03T04:51:21;20.60;99.90
4725;DHT22;2376;53.544;10.226;2022-08-03T04:53:48;20.60;99.90
4725;DHT22;2376;53.544;10.226;2022-08-03T04:56:15;20.60;99.90
4725;DHT22;2376;53.544;10.226;2022-08-03T04:58:41;20.60;99.90
4725;DHT22;2376;53.544;10.226;2022-08-03T05:01:08;20.60;99.90
4725;DHT22;2376;53.544;10.226;2022-08-03T05:03:36;20.60;99.90
4725;DHT22;2376;53.544;10.226;2022-08-03T05:06:03;20.70;99.90
4725;DHT22;2376;53.544;10.226;2022-08-03T05:08:30;20.70;99.90
4725;DHT22;2376;53.544;10.226;2022-08-03T05:10:58;20.70;99.90
4725;DHT22;2376;53.544;10.226;2022-08-03T05:13:25;20.70;99.90
4725;DHT22;2376;53.544;10.226;2022-08-03T05:15:52;20.70;99.90
4725;DHT22;2376;53.544;10.226;2022-08-03T05:18:20;20.80;99.90
4725;DHT22;2376;53.544;10.226;2022-08-03T05:20:48;20.80;99.90
4725;DHT22;2376;53.544;10.226;2022-08-03T05:23:15;20.80;99.90
4725;DHT22;2376;53.544;10.226;2022-08-03T05:25:42;20.80;99.90
4725;DHT22;2376;53.544;10.226;2022-08-03T05:28:11;20.80;99.90
4725;DHT22;2376;53.544;10.226;2022-08-03T05:30:39;20.90;99.90
4725;DHT22;2376;53.544;10.226;2022-08-03T05:33:05;20.90;99.90
4725;DHT22;2376;53.544;10.226;2022-08-03T05:35:32;20.90;99.90
4725;DHT22;2376;53.544;10.226;2022-08-03T05:38:02;20.90;99.90
4725;DHT22;2376;53.544;10.226;2022-08-03T05:40:30;20.90;99.90
4725;DHT22;2376;53.544;10.226;2022-08-03T05:42:58;20.90;99.90
4725;DHT22;2376;53.544;10.226;2022-08-03T05:45:25;20.90;99.90
4725;DHT22;2376;53.544;10.226;2022-08-03T05:47:51;20.90;99.90
4725;DHT22;2376;53.544;10.226;2022-08-03T05:50:19;20.90;99.90
4725;DHT22;2376;53.544;10.226;2022-08-03T05:52:46;21.00;99.90
4725;DHT22;2376;53.544;10.226;2022-08-03T05:55:15;21.00;99.90
4725;DHT22;2376;53.544;10.226;2022-08-03T05:57:42;21.00;99.90
4725;DHT22;2376;53.544;10.226;2022-08-03T06:00:11;21.00;99.90
4725;DHT22;2376;53.544;10.226;2022-08-03T06:02:38;21.00;99.90
4725;DHT22;2376;53.544;10.226;2022-08-03T06:05:06;21.10;99.90
4725;DHT22;2376;53.544;10.226;2022-08-03T06:07:33;21.10;99.90
4725;DHT22;2376;53.544;10.226;2022-08-03T06:10:01;21.10;99.90
4725;DHT22;2376;53.544;10.226;2022-08-03T06:12:30;21.10;99.90
4725;DHT22;2376;53.544;10.226;2022-08-03T06:15:01;21.20;99.90
4725;DHT22;2376;53.544;10.226;2022-08-03T06:17:29;21.20;99.90
4725;DHT22;2376;53.544;10.226;2022-08-03T06:19:56;21.20;99.90
4725;DHT22;2376;53.544;10.226;2022-08-03T06:22:23;21.30;99.90
4725;DHT22;2376;53.544;10.226;2022-08-03T06:24:51;21.30;99.90
4725;DHT22;2376;53.544;10.226;2022-08-03T06:27:17;21.30;99.90
4725;DHT22;2376;53.544;10.226;2022-08-03T06:29:46;21.30;99.90
4725;DHT22;2376;53.544;10.226;2022-08-03T06:32:13;21.40;99.90
4725;DHT22;2376;53.544;10.226;2022-08-03T06:34:40;21.40;99.90
4725;DHT22;2376;53.544;10.226;2022-08-03T06:37:07;21.50;99.90
4725;DHT22;2376;53.544;10.226;2022-08-03T06:39:34;21.50;99.90
4725;DHT22;2376;53.544;10.226;2022-08-03T06:42:01;21.60;99.90
4725;DHT22;2376;53.544;10.226;2022-08-03T06:44:29;21.70;99.90
4725;DHT22;2376;53.544;10.226;2022-08-03T06:46:57;21.70;99.90
4725;DHT22;2376;53.544;10.226;2022-08-03T06:49:24;21.80;99.90
4725;DHT22;2376;53.544;10.226;2022-08-03T06:51:51;21.80;99.90
4725;DHT22;2376;53.544;10.226;2022-08-03T06:54:19;21.90;99.90
4725;DHT22;2376;53.544;10.226;2022-08-03T06:56:48;22.00;99.90
4725;DHT22;2376;53.544;10.226;2022-08-03T06:59:17;22.00;99.90
4725;DHT22;2376;53.544;10.226;2022-08-03T07:01:44;22.10;99.90
4725;DHT22;2376;53.544;10.226;2022-08-03T07:04:12;22.10;99.90
4725;DHT22;2376;53.544;10.226;2022-08-03T07:06:39;22.20;99.90
4725;DHT22;2376;53.544;10.226;2022-08-03T07:09:06;22.20;99.90
4725;DHT22;2376;53.544;10.226;2022-08-03T07:11:33;22.30;99.90
4725;DHT22;2376;53.544;10.226;2022-08-03T07:14:01;22.40;99.90
4725;DHT22;2376;53.544;10.226;2022-08-03T07:16:28;22.40;99.90
4725;DHT22;2376;53.544;10.226;2022-08-03T07:18:55;22.50;99.90
4725;DHT22;2376;53.544;10.226;2022-08-03T07:21:23;22.50;99.90
4725;DHT22;2376;53.544;10.226;2022-08-03T07:23:50;22.60;99.90
4725;DHT22;2376;53.544;10.226;2022-08-03T07:26:17;22.70;99.90
4725;DHT22;2376;53.544;10.226;2022-08-03T07:28:44;22.70;99.90
4725;DHT22;2376;53.544;10.226;2022-08-03T07:31:11;22.80;99.90
4725;DHT22;2376;53.544;10.226;2022-08-03T07:33:37;23.00;99.90
4725;DHT22;2376;53.544;10.226;2022-08-03T07:36:04;23.10;99.90
4725;DHT22;2376;53.544;10.226;2022-08-03T07:38:33;23.20;99.90
4725;DHT22;2376;53.544;10.226;2022-08-03T07:41:01;23.30;99.90
4725;DHT22;2376;53.544;10.226;2022-08-03T07:43:28;23.40;99.90
4725;DHT22;2376;53.544;10.226;2022-08-03T07:45:54;23.50;99.90
4725;DHT22;2376;53.544;10.226;2022-08-03T07:48:21;23.60;99.90
4725;DHT22;2376;53.544;10.226;2022-08-03T07:50:48;23.80;99.90
4725;DHT22;2376;53.544;10.226;2022-08-03T07:53:16;23.90;99.90
4725;DHT22;2376;53.544;10.226;2022-08-03T07:55:44;24.00;99.90
4725;DHT22;2376;53.544;10.226;2022-08-03T07:58:11;24.10;99.90
4725;DHT22;2376;53.544;10.226;2022-08-03T08:00:40;24.30;99.90
4725;DHT22;2376;53.544;10.226;2022-08-03T08:03:09;24.40;99.90
4725;DHT22;2376;53.544;10.226;2022-08-03T08:05:36;24.60;99.90
4725;DHT22;2376;53.544;10.226;2022-08-03T08:08:04;24.80;99.90
4725;DHT22;2376;53.544;10.226;2022-08-03T08:10:31;25.00;99.90
4725;DHT22;2376;53.544;10.226;2022-08-03T08:13:00;25.10;99.90
4725;DHT22;2376;53.544;10.226;2022-08-03T08:15:27;25.30;99.90
4725;DHT22;2376;53.544;10.226;2022-08-03T08:17:57;25.40;99.90
4725;DHT22;2376;53.544;10.226;2022-08-03T08:20:27;25.60;99.90
4725;DHT22;2376;53.544;10.226;2022-08-03T08:22:55;25.70;99.90
4725;DHT22;2376;53.544;10.226;2022-08-03T08:25:22;25.90;99.90
4725;DHT22;2376;53.544;10.226;2022-08-03T08:27:49;26.00;99.90
4725;DHT22;2376;53.544;10.226;2022-08-03T08:30:21;26.10;99.90
4725;DHT22;2376;53.544;10.226;2022-08-03T08:32:50;26.20;99.90
4725;DHT22;2376;53.544;10.226;2022-08-03T08:35:17;26.30;99.90
4725;DHT22;2376;53.544;10.226;2022-08-03T08:37:45;26.40;99.90
4725;DHT22;2376;53.544;10.226;2022-08-03T08:40:12;26.50;99.90
4725;DHT22;2376;53.544;10.226;2022-08-03T08:42:40;26.60;99.90
4725;DHT22;2376;53.544;10.226;2022-08-03T08:45:09;26.60;99.90
4725;DHT22;2376;53.544;10.226;2022-08-03T08:47:39;26.80;99.90
4725;DHT22;2376;53.544;10.226;2022-08-03T08:50:07;26.90;99.90
4725;DHT22;2376;53.544;10.226;2022-08-03T08:52:38;27.00;99.90
4725;DHT22;2376;53.544;10.226;2022-08-03T08:55:08;27.00;99.90
4725;DHT22;2376;53.544;10.226;2022-08-03T08:57:36;27.10;99.90
4725;DHT22;2376;53.544;10.226;2022-08-03T09:00:07;27.10;99.90
4725;DHT22;2376;53.544;10.226;2022-08-03T09:02:35;27.30;99.90
4725;DHT22;2376;53.544;10.226;2022-08-03T09:05:09;27.40;99.90
4725;DHT22;2376;53.544;10.226;2022-08-03T09:07:37;27.50;99.90
4725;DHT22;2376;53.544;10.226;2022-08-03T09:10:06;27.60;99.90
4725;DHT22;2376;53.544;10.226;2022-08-03T09:12:37;27.60;99.90
4725;DHT22;2376;53.544;10.226;2022-08-03T09:15:18;27.70;99.90
4725;DHT22;2376;53.544;10.226;2022-08-03T09:17:46;27.90;99.90
4725;DHT22;2376;53.544;10.226;2022-08-03T09:20:14;28.00;99.90
4725;DHT22;2376;53.544;10.226;2022-08-03T09:22:51;28.10;99.90
4725;DHT22;2376;53.544;10.226;2022-08-03T09:25:21;28.10;99.90
4725;DHT22;2376;53.544;10.226;2022-08-03T09:27:51;28.20;99.90
4725;DHT22;2376;53.544;10.226;2022-08-03T09:30:18;28.30;99.90
4725;DHT22;2376;53.544;10.226;2022-08-03T09:32:47;28.40;99.90
4725;DHT22;2376;53.544;10.226;2022-08-03T09:35:15;28.50;99.90
4725;DHT22;2376;53.544;10.226;2022-08-03T09:37:43;28.50;99.90
4725;DHT22;2376;53.544;10.226;2022-08-03T09:40:10;28.50;99.90
4725;DHT22;2376;53.544;10.226;2022-08-03T09:42:57;28.50;99.70
4725;DHT22;2376;53.544;10.226;2022-08-03T09:45:27;28.50;99.90
4725;DHT22;2376;53.544;10.226;2022-08-03T09:47:54;28.50;99.70
4725;DHT22;2376;53.544;10.226;2022-08-03T09:50:25;28.60;99.70
4725;DHT22;2376;53.544;10.226;2022-08-03T09:52:52;28.60;99.30
4725;DHT22;2376;53.544;10.226;2022-08-03T09:55:19;28.60;99.80
4725;DHT22;2376;53.544;10.226;2022-08-03T09:57:47;28.70;99.80
4725;DHT22;2376;53.544;10.226;2022-08-03T10:00:16;28.80;99.60
4725;DHT22;2376;53.544;10.226;2022-08-03T10:03:03;28.80;99.30
4725;DHT22;2376;53.544;10.226;2022-08-03T10:05:36;28.90;98.80
4725;DHT22;2376;53.544;10.226;2022-08-03T10:08:13;28.90;98.30
4725;DHT22;2376;53.544;10.226;2022-08-03T10:10:41;29.00;98.20
4725;DHT22;2376;53.544;10.226;2022-08-03T10:13:11;29.00;98.10
4725;DHT22;2376;53.544;10.226;2022-08-03T10:15:39;29.10;98.40
4725;DHT22;2376;53.544;10.226;2022-08-03T10:18:08;29.20;98.30
4725;DHT22;2376;53.544;10.226;2022-08-03T10:20:43;29.30;98.40
4725;DHT22;2376;53.544;10.226;2022-08-03T10:23:11;29.50;97.80
4725;DHT22;2376;53.544;10.226;2022-08-03T10:25:40;29.50;96.70
4725;DHT22;2376;53.544;10.226;2022-08-03T10:28:13;29.50;96.40
4725;DHT22;2376;53.544;10.226;2022-08-03T10:30:43;29.60;96.20
4725;DHT22;2376;53.544;10.226;2022-08-03T10:33:17;29.60;95.60
4725;DHT22;2376;53.544;10.226;2022-08-03T10:35:46;29.70;95.40
4725;DHT22;2376;53.544;10.226;2022-08-03T10:38:18;29.70;95.00
4725;DHT22;2376;53.544;10.226;2022-08-03T10:40:47;29.70;95.30
4725;DHT22;2376;53.544;10.226;2022-08-03T10:43:19;29.80;95.40
4725;DHT22;2376;53.544;10.226;2022-08-03T10:45:48;29.70;94.30
4725;DHT22;2376;53.544;10.226;2022-08-03T10:48:16;29.70;95.30
4725;DHT22;2376;53.544;10.226;2022-08-03T10:50:45;29.80;94.70
4725;DHT22;2376;53.544;10.226;2022-08-03T10:53:14;29.90;94.20
4725;DHT22;2376;53.544;10.226;2022-08-03T10:55:42;29.90;93.30
4725;DHT22;2376;53.544;10.226;2022-08-03T10:58:47;29.90;93.10
4725;DHT22;2376;53.544;10.226;2022-08-03T11:01:18;30.00;93.50
4725;DHT22;2376;53.544;10.226;2022-08-03T11:04:15;30.10;93.10
4725;DHT22;2376;53.544;10.226;2022-08-03T11:06:45;30.10;92.30
4725;DHT22;2376;53.544;10.226;2022-08-03T11:09:17;30.10;92.20
4725;DHT22;2376;53.544;10.226;2022-08-03T11:11:46;30.10;91.70
4725;DHT22;2376;53.544;10.226;2022-08-03T11:14:15;30.20;92.10
4725;DHT22;2376;53.544;10.226;2022-08-03T11:16:45;30.30;92.60
4725;DHT22;2376;53.544;10.226;2022-08-03T11:19:16;30.40;93.00
4725;DHT22;2376;53.544;10.226;2022-08-03T11:21:57;30.60;92.10
4725;DHT22;2376;53.544;10.226;2022-08-03T11:24:58;30.60;91.50
4725;DHT22;2376;53.544;10.226;2022-08-03T11:27:31;30.70;91.40
4725;DHT22;2376;53.544;10.226;2022-08-03T11:30:01;30.80;91.30
4725;DHT22;2376;53.544;10.226;2022-08-03T11:32:52;30.80;90.40
4725;DHT22;2376;53.544;10.226;2022-08-03T11:35:21;30.80;91.10
4725;DHT22;2376;53.544;10.226;2022-08-03T11:38:07;30.80;91.10
4725;DHT22;2376;53.544;10.226;2022-08-03T11:40:39;30.70;90.10
4725;DHT22;2376;53.544;10.226;2022-08-03T11:43:10;30.70;90.70
4725;DHT22;2376;53.544;10.226;2022-08-03T11:46:03;30.70;90.70
4725;DHT22;2376;53.544;10.226;2022-08-03T11:48:34;30.70;90.00
4725;DHT22;2376;53.544;10.226;2022-08-03T11:51:02;30.70;90.40
4725;DHT22;2376;53.544;10.226;2022-08-03T11:53:32;30.70;89.30
4725;DHT22;2376;53.544;10.226;2022-08-03T11:56:01;30.80;90.00
4725;DHT22;2376;53.544;10.226;2022-08-03T11:58:29;30.80;88.20
4725;DHT22;2376;53.544;10.226;2022-08-03T12:01:05;30.90;87.60
4725;DHT22;2376;53.544;10.226;2022-08-03T12:03:33;31.00;86.30
4725;DHT22;2376;53.544;10.226;2022-08-03T12:06:00;30.90;86.20
4725;DHT22;2376;53.544;10.226;2022-08-03T12:08:31;31.00;86.70
4725;DHT22;2376;53.544;10.226;2022-08-03T12:10:59;31.10;88.00
4725;DHT22;2376;53.544;10.226;2022-08-03T12:13:35;31.30;87.50
4725;DHT22;2376;53.544;10.226;2022-08-03T12:16:04;31.30;86.00
4725;DHT22;2376;53.544;10.226;2022-08-03T12:18:31;31.30;82.60
4725;DHT22;2376;53.544;10.226;2022-08-03T12:21:04;31.20;80.80
4725;DHT22;2376;53.544;10.226;2022-08-03T12:23:31;31.20;80.50
4725;DHT22;2376;53.544;10.226;2022-08-03T12:26:01;31.00;80.50
4725;DHT22;2376;53.544;10.226;2022-08-03T12:28:28;31.10;81.20
4725;DHT22;2376;53.544;10.226;2022-08-03T12:31:00;31.10;79.50
4725;DHT22;2376;53.544;10.226;2022-08-03T12:33:29;31.10;80.00
4725;DHT22;2376;53.544;10.226;2022-08-03T12:36:05;31.10;78.60
4725;DHT22;2376;53.544;10.226;2022-08-03T12:38:32;31.10;77.90
4725;DHT22;2376;53.544;10.226;2022-08-03T12:41:02;31.20;79.40
4725;DHT22;2376;53.544;10.226;2022-08-03T12:43:30;31.30;78.50
4725;DHT22;2376;53.544;10.226;2022-08-03T12:46:10;31.40;77.80
4725;DHT22;2376;53.544;10.226;2022-08-03T12:49:01;31.50;77.70
4725;DHT22;2376;53.544;10.226;2022-08-03T12:51:28;31.50;78.50
4725;DHT22;2376;53.544;10.226;2022-08-03T12:53:56;31.70;79.50
4725;DHT22;2376;53.544;10.226;2022-08-03T12:56:24;31.70;77.80
4725;DHT22;2376;53.544;10.226;2022-08-03T12:58:52;31.80;78.50
4725;DHT22;2376;53.544;10.226;2022-08-03T13:01:20;31.90;77.40
4725;DHT22;2376;53.544;10.226;2022-08-03T13:03:50;31.90;77.00
4725;DHT22;2376;53.544;10.226;2022-08-03T13:06:20;31.90;76.20
4725;DHT22;2376;53.544;10.226;2022-08-03T13:08:49;31.90;74.70
4725;DHT22;2376;53.544;10.226;2022-08-03T13:11:20;31.90;75.00
4725;DHT22;2376;53.544;10.226;2022-08-03T13:13:47;31.90;75.70
4725;DHT22;2376;53.544;10.226;2022-08-03T13:16:14;31.90;74.30
4725;DHT22;2376;53.544;10.226;2022-08-03T13:18:42;32.00;74.40
4725;DHT22;2376;53.544;10.226;2022-08-03T13:21:11;32.00;76.10
4725;DHT22;2376;53.544;10.226;2022-08-03T13:23:39;32.00;75.20
4725;DHT22;2376;53.544;10.226;2022-08-03T13:26:06;32.10;74.60
4725;DHT22;2376;53.544;10.226;2022-08-03T13:28:33;32.20;76.10
4725;DHT22;2376;53.544;10.226;2022-08-03T13:31:03;32.20;74.00
4725;DHT22;2376;53.544;10.226;2022-08-03T13:33:29;32.30;74.50
4725;DHT22;2376;53.544;10.226;2022-08-03T13:35:58;32.30;74.00
4725;DHT22;2376;53.544;10.226;2022-08-03T13:38:24;32.30;72.50
4725;DHT22;2376;53.544;10.226;2022-08-03T13:40:53;32.30;72.40
4725;DHT22;2376;53.544;10.226;2022-08-03T13:43:19;32.40;72.50
4725;DHT22;2376;53.544;10.226;2022-08-03T13:45:47;32.30;70.50
4725;DHT22;2376;53.544;10.226;2022-08-03T13:48:13;32.20;70.90
4725;DHT22;2376;53.544;10.226;2022-08-03T13:50:40;32.20;72.20
4725;DHT22;2376;53.544;10.226;2022-08-03T13:53:07;32.30;71.70
4725;DHT22;2376;53.544;10.226;2022-08-03T13:55:34;32.40;72.40
4725;DHT22;2376;53.544;10.226;2022-08-03T13:58:02;32.50;72.20
4725;DHT22;2376;53.544;10.226;2022-08-03T14:00:29;32.60;70.70
4725;DHT22;2376;53.544;10.226;2022-08-03T14:02:57;32.40;69.00
4725;DHT22;2376;53.544;10.226;2022-08-03T14:05:24;32.30;69.40
4725;DHT22;2376;53.544;10.226;2022-08-03T14:07:52;32.20;68.40
4725;DHT22;2376;53.544;10.226;2022-08-03T14:10:19;32.20;71.20
4725;DHT22;2376;53.544;10.226;2022-08-03T14:12:45;32.30;70.20
4725;DHT22;2376;53.544;10.226;2022-08-03T14:15:13;32.30;69.90
4725;DHT22;2376;53.544;10.226;2022-08-03T14:17:42;32.30;69.40
4725;DHT22;2376;53.544;10.226;2022-08-03T14:20:11;32.40;69.80
4725;DHT22;2376;53.544;10.226;2022-08-03T14:22:38;32.40;69.70
4725;DHT22;2376;53.544;10.226;2022-08-03T14:25:06;32.40;69.10
4725;DHT22;2376;53.544;10.226;2022-08-03T14:27:33;32.40;70.00
4725;DHT22;2376;53.544;10.226;2022-08-03T14:30:02;32.40;71.40
4725;DHT22;2376;53.544;10.226;2022-08-03T14:32:30;32.50;69.70
4725;DHT22;2376;53.544;10.226;2022-08-03T14:34:57;32.60;69.10
4725;DHT22;2376;53.544;10.226;2022-08-03T14:37:24;32.70;69.00
4725;DHT22;2376;53.544;10.226;2022-08-03T14:39:51;32.70;68.50
4725;DHT22;2376;53.544;10.226;2022-08-03T14:42:19;32.80;68.40
4725;DHT22;2376;53.544;10.226;2022-08-03T14:44:46;32.80;68.50
4725;DHT22;2376;53.544;10.226;2022-08-03T14:47:13;32.80;68.10
4725;DHT22;2376;53.544;10.226;2022-08-03T14:49:42;32.80;68.50
4725;DHT22;2376;53.544;10.226;2022-08-03T14:52:09;32.80;67.70
4725;DHT22;2376;53.544;10.226;2022-08-03T14:54:36;32.80;68.20
4725;DHT22;2376;53.544;10.226;2022-08-03T14:57:04;32.80;66.30
4725;DHT22;2376;53.544;10.226;2022-08-03T14:59:31;32.80;67.30
4725;DHT22;2376;53.544;10.226;2022-08-03T15:01:58;32.80;67.50
4725;DHT22;2376;53.544;10.226;2022-08-03T15:04:26;32.90;66.20
4725;DHT22;2376;53.544;10.226;2022-08-03T15:06:54;32.80;66.60
4725;DHT22;2376;53.544;10.226;2022-08-03T15:09:21;32.80;66.20
4725;DHT22;2376;53.544;10.226;2022-08-03T15:11:48;32.90;67.10
4725;DHT22;2376;53.544;10.226;2022-08-03T15:14:14;32.90;65.20
4725;DHT22;2376;53.544;10.226;2022-08-03T15:16:41;32.90;65.10
4725;DHT22;2376;53.544;10.226;2022-08-03T15:19:08;32.90;65.30
4725;DHT22;2376;53.544;10.226;2022-08-03T15:21:35;32.90;64.00
4725;DHT22;2376;53.544;10.226;2022-08-03T15:24:04;32.90;65.10
4725;DHT22;2376;53.544;10.226;2022-08-03T15:26:31;32.90;64.80
4725;DHT22;2376;53.544;10.226;2022-08-03T15:28:58;32.90;65.00
4725;DHT22;2376;53.544;10.226;2022-08-03T15:31:25;32.90;63.30
4725;DHT22;2376;53.544;10.226;2022-08-03T15:33:51;32.80;63.20
4725;DHT22;2376;53.544;10.226;2022-08-03T15:36:18;32.90;64.00
4725;DHT22;2376;53.544;10.226;2022-08-03T15:38:46;32.80;62.80
4725;DHT22;2376;53.544;10.226;2022-08-03T15:41:14;32.90;64.70
4725;DHT22;2376;53.544;10.226;2022-08-03T15:43:41;32.90;63.50
4725;DHT22;2376;53.544;10.226;2022-08-03T15:46:08;32.90;62.90
4725;DHT22;2376;53.544;10.226;2022-08-03T15:48:35;32.90;62.10
4725;DHT22;2376;53.544;10.226;2022-08-03T15:51:02;32.90;62.40
4725;DHT22;2376;53.544;10.226;2022-08-03T15:53:31;32.80;61.30
4725;DHT22;2376;53.544;10.226;2022-08-03T15:55:58;32.80;60.90
4725;DHT22;2376;53.544;10.226;2022-08-03T15:58:27;32.80;61.60